Time;durP1;ratioP1;P1;durP2;ratioP2;P2;SDS_P1;SDS_P2;PMS_P1;PMS_P2;Temp;Humidity;BMP_temperature;BMP_pressure;BME280_temperature;BME280_humidity;BME280_pressure;Samples;Min_cycle;Max_cycle;Signal;HPM_P1;HPM_P2
2023/01/26 00:02:05;;;;;;;32.85;12.40;;;0.10;99.90;;;;;;5079746;28;20082;-58
2023/01/26 00:04:31;;;;;;;38.38;14.52;;;0.40;99.90;;;;;;5079966;28;20036;-58
2023/01/26 00:06:57;;;;;;;31.52;12.10;;;0.80;99.90;;;;;;5080216;28;20044;-58
2023/01/26 00:09:22;;;;;;;32.85;13.00;;;0.60;99.90;;;;;;5080067;28;20076;-58
2023/01/26 00:11:48;;;;;;;36.08;12.50;;;0.20;99.90;;;;;;5080194;28;20037;-58
2023/01/26 00:14:13;;;;;;;37.72;14.10;;;0.70;99.90;;;;;;5079634;28;20071;-58
2023/01/26 00:16:39;;;;;;;32.50;13.40;;;0.20;99.90;;;;;;5079910;28;20064;-59
2023/01/26 00:19:05;;;;;;;37.30;13.88;;;0.80;99.90;;;;;;5078981;28;20053;-59
2023/01/26 00:21:31;;;;;;;32.92;13.10;;;0.60;99.90;;;;;;5080218;28;20048;-58
2023/01/26 00:23:56;;;;;;;33.67;12.30;;;0.40;99.90;;;;;;5061657;28;20044;-58
2023/01/26 00:26:24;;;;;;;37.78;13.68;;;0.80;99.90;;;;;;5079982;28;20048;-58
2023/01/26 00:28:50;;;;;;;37.13;12.45;;;0.10;99.90;;;;;;5080231;28;20044;-58
2023/01/26 00:31:19;;;;;;;34.35;13.18;;;0.60;99.90;;;;;;5079532;28;20048;-58
2023/01/26 00:33:45;;;;;;;33.90;13.13;;;0.80;99.90;;;;;;5079788;28;20049;-58
2023/01/26 00:36:12;;;;;;;35.25;12.40;;;0.10;99.90;;;;;;5079543;28;20480;-58
2023/01/26 00:38:38;;;;;;;35.10;12.80;;;0.70;99.90;;;;;;5065206;28;20082;-59
2023/01/26 00:41:04;;;;;;;35.97;13.45;;;0.70;99.90;;;;;;5083925;28;20087;-57
2023/01/26 00:43:30;;;;;;;36.38;14.57;;;0.70;99.90;;;;;;5083694;28;20671;-58
2023/01/26 00:45:56;;;;;;;35.28;13.95;;;0.10;99.90;;;;;;5084179;28;20638;-58
2023/01/26 00:48:21;;;;;;;31.05;12.73;;;0.80;99.90;;;;;;5064851;28;20044;-59
2023/01/26 00:50:50;;;;;;;34.92;13.32;;;0.20;99.90;;;;;;5083779;28;20052;-59
2023/01/26 00:53:16;;;;;;;34.88;13.70;;;0.20;99.90;;;;;;5085921;28;20079;-58
2023/01/26 00:55:41;;;;;;;35.90;13.35;;;0.10;99.90;;;;;;5103958;28;20059;-59
2023/01/26 00:58:07;;;;;;;36.63;14.60;;;-0.20;99.90;;;;;;5103449;28;20044;-59
2023/01/26 01:00:36;;;;;;;36.78;13.15;;;0.10;99.90;;;;;;5103733;28;20051;-58
2023/01/26 01:03:02;;;;;;;33.22;13.50;;;0.10;99.90;;;;;;5103954;28;20048;-58
2023/01/26 01:05:29;;;;;;;34.78;13.77;;;0.90;99.90;;;;;;5103418;28;20097;-58
2023/01/26 01:07:55;;;;;;;34.40;12.70;;;0.90;99.90;;;;;;5103900;28;20040;-58
2023/01/26 01:10:22;;;;;;;32.78;11.95;;;0.90;99.90;;;;;;5103195;28;20127;-58
2023/01/26 01:12:48;;;;;;;38.47;14.32;;;0.30;99.90;;;;;;5103696;28;20093;-58
2023/01/26 01:15:14;;;;;;;31.80;12.75;;;0.20;99.90;;;;;;5103438;28;20044;-58
2023/01/26 01:17:39;;;;;;;34.42;12.88;;;0.40;99.90;;;;;;5103137;28;20079;-58
2023/01/26 01:20:09;;;;;;;33.13;13.15;;;0.10;99.90;;;;;;5103787;28;20079;-59
2023/01/26 01:22:35;;;;;;;31.60;11.98;;;0.30;99.90;;;;;;5103247;28;20044;-59
2023/01/26 01:25:01;;;;;;;34.22;13.20;;;0.20;99.90;;;;;;5103615;28;20345;-59
2023/01/26 01:27:27;;;;;;;35.63;13.82;;;0.60;99.90;;;;;;5102834;28;20100;-59
2023/01/26 01:29:52;;;;;;;28.63;11.63;;;0.40;99.90;;;;;;5103235;28;20044;-60
2023/01/26 01:32:18;;;;;;;33.97;12.27;;;0.90;99.90;;;;;;5103175;28;20040;-60
2023/01/26 01:34:46;;;;;;;32.22;13.20;;;0.20;99.90;;;;;;5103147;28;20044;-60
2023/01/26 01:37:12;;;;;;;30.33;13.40;;;0.50;99.90;;;;;;5103451;28;20040;-57
2023/01/26 01:39:38;;;;;;;35.80;12.32;;;0.30;99.90;;;;;;5084455;28;20123;-60
2023/01/26 01:42:04;;;;;;;36.75;13.50;;;0.90;99.90;;;;;;5102965;28;20047;-59
2023/01/26 01:44:29;;;;;;;37.15;13.23;;;0.20;99.90;;;;;;5102416;28;20043;-60
2023/01/26 01:47:04;;;;;;;34.03;13.07;;;0.30;99.90;;;;;;5102873;28;20044;-59
2023/01/26 01:49:37;;;;;;;33.03;12.98;;;0.20;99.90;;;;;;5102852;28;20093;-58
2023/01/26 01:52:16;;;;;;;31.83;11.85;;;0.20;99.90;;;;;;5103059;28;20046;-59
2023/01/26 01:55:09;;;;;;;32.17;12.60;;;0.20;99.90;;;;;;5087777;28;20052;-59
2023/01/26 01:57:52;;;;;;;34.50;12.85;;;0.30;99.90;;;;;;5078805;28;20061;-59
2023/01/26 02:00:21;;;;;;;30.42;12.07;;;0.90;99.90;;;;;;5082598;28;20048;-59
2023/01/26 02:03:10;;;;;;;36.00;12.88;;;0.40;99.90;;;;;;5082762;28;20123;-59
2023/01/26 02:06:05;;;;;;;38.13;13.13;;;0.30;99.90;;;;;;5081791;28;20068;-59
2023/01/26 02:08:52;;;;;;;35.28;13.70;;;1.00;99.90;;;;;;5082373;28;20071;-59
2023/01/26 02:11:36;;;;;;;32.78;12.65;;;0.90;99.90;;;;;;5082310;28;20055;-59
2023/01/26 02:14:07;;;;;;;39.03;13.55;;;0.40;99.90;;;;;;5081834;28;20056;-59
2023/01/26 02:16:33;;;;;;;36.22;13.30;;;0.20;99.90;;;;;;5082094;28;20052;-59
2023/01/26 02:18:59;;;;;;;34.05;12.43;;;0.40;99.90;;;;;;5081338;28;20053;-59
2023/01/26 02:21:25;;;;;;;37.28;12.23;;;0.50;99.90;;;;;;5082265;28;20037;-59
2023/01/26 02:24:12;;;;;;;35.75;12.55;;;1.20;99.90;;;;;;5081858;28;20047;-59
2023/01/26 02:26:38;;;;;;;31.98;11.98;;;1.10;99.90;;;;;;5081880;28;20127;-59
2023/01/26 02:29:08;;;;;;;36.28;12.57;;;1.10;99.90;;;;;;5082060;28;20052;-58
2023/01/26 02:31:35;;;;;;;34.78;11.88;;;1.20;99.90;;;;;;5081216;28;20090;-58
2023/01/26 02:34:00;;;;;;;37.95;13.65;;;0.40;99.90;;;;;;5081979;28;20040;-58
2023/01/26 02:36:29;;;;;;;37.55;14.02;;;0.50;99.90;;;;;;5081296;28;20074;-59
2023/01/26 02:39:43;;;;;;;35.63;12.80;;;1.20;99.90;;;;;;5081696;28;20498;-58
2023/01/26 02:44:53;;;;;;;36.47;13.23;;;0.40;99.90;;;;;;5063023;28;20044;-59
2023/01/26 02:47:19;;;;;;;37.90;12.85;;;0.40;99.90;;;;;;5081314;28;20462;-59
2023/01/26 02:49:49;;;;;;;32.55;12.60;;;1.20;99.90;;;;;;5081578;28;20044;-58
2023/01/26 02:52:24;;;;;;;33.58;12.68;;;0.70;99.90;;;;;;5081118;28;20048;-58
2023/01/26 02:57:35;;;;;;;37.15;13.13;;;1.20;99.90;;;;;;5101059;28;20159;-58
2023/01/26 03:00:04;;;;;;;38.88;12.93;;;1.10;99.90;;;;;;5101010;28;20051;-59
2023/01/26 03:02:30;;;;;;;37.22;13.93;;;0.50;99.90;;;;;;5101622;28;20043;-58
2023/01/26 03:04:56;;;;;;;47.25;14.50;;;0.50;99.90;;;;;;5101411;28;20043;-58
2023/01/26 03:07:21;;;;;;;43.47;14.90;;;1.30;99.90;;;;;;5101708;28;20092;-58
2023/01/26 03:09:47;;;;;;;45.08;15.40;;;1.30;99.90;;;;;;5100678;28;20063;-59
2023/01/26 03:12:13;;;;;;;40.83;14.10;;;1.10;99.90;;;;;;5083339;28;20058;-59
2023/01/26 03:14:38;;;;;;;44.28;15.80;;;1.10;99.90;;;;;;5100718;28;20044;-58
2023/01/26 03:17:04;;;;;;;43.00;14.77;;;0.70;99.90;;;;;;5101025;28;20052;-58
2023/01/26 03:27:48;;;;;;;43.13;15.02;;;1.10;99.90;;;;;;5085341;28;20050;-58
2023/01/26 03:30:16;;;;;;;45.70;15.63;;;1.00;99.90;;;;;;5082698;28;20036;-58
2023/01/26 03:32:42;;;;;;;39.60;14.15;;;1.40;99.90;;;;;;5082738;28;20055;-58
2023/01/26 03:35:13;;;;;;;40.17;13.93;;;0.80;99.90;;;;;;5082301;28;20048;-58
2023/01/26 03:37:42;;;;;;;45.00;13.73;;;0.70;99.90;;;;;;5101022;28;20047;-57
2023/01/26 03:56:35;;;;;;;42.40;15.13;;;1.20;99.90;;;;;;5080056;28;20094;-58
2023/01/26 03:59:11;;;;;;;44.17;13.95;;;1.10;99.90;;;;;;5080223;28;20040;-58
2023/01/26 04:01:39;;;;;;;39.10;14.20;;;1.10;99.90;;;;;;5063053;28;20044;-58
2023/01/26 04:09:38;;;;;;;39.75;15.18;;;1.80;99.90;;;;;;5079852;28;20519;-58
2023/01/26 04:12:04;;;;;;;43.00;15.27;;;1.10;99.90;;;;;;5079210;28;20049;-58
2023/01/26 04:22:46;;;;;;;45.97;15.70;;;1.90;99.90;;;;;;5079208;28;20047;-58
2023/01/26 04:25:15;;;;;;;39.95;13.10;;;2.40;99.90;;;;;;5079973;28;20032;-59
2023/01/26 04:27:41;;;;;;;45.65;15.73;;;2.10;99.90;;;;;;5079608;28;20048;-58
2023/01/26 04:30:09;;;;;;;38.25;13.60;;;1.40;99.90;;;;;;5080147;28;20040;-58
2023/01/26 04:32:35;;;;;;;47.53;15.07;;;1.30;99.90;;;;;;5079801;28;20044;-58
2023/01/26 04:35:01;;;;;;;41.15;13.55;;;1.90;99.90;;;;;;5079650;28;20049;-58
2023/01/26 04:37:26;;;;;;;44.53;16.30;;;1.80;99.90;;;;;;5079437;28;20048;-57
2023/01/26 04:39:52;;;;;;;44.83;16.02;;;2.30;99.90;;;;;;5079428;28;20088;-58
2023/01/26 04:42:18;;;;;;;42.67;15.20;;;2.30;99.90;;;;;;5079756;28;20044;-58
2023/01/26 04:44:43;;;;;;;42.05;13.25;;;1.90;99.90;;;;;;5079492;28;20123;-58
2023/01/26 04:47:09;;;;;;;43.60;13.45;;;1.60;99.90;;;;;;5079450;28;20072;-58
2023/01/26 04:49:35;;;;;;;45.35;13.73;;;2.40;99.90;;;;;;5079875;28;20436;-57
2023/01/26 04:52:00;;;;;;;44.90;15.50;;;2.50;99.90;;;;;;5079406;28;20394;-58
2023/01/26 04:54:26;;;;;;;39.60;13.43;;;1.60;99.90;;;;;;5092606;28;20086;-58
2023/01/26 04:56:51;;;;;;;55.75;16.05;;;1.70;99.90;;;;;;5099327;28;20047;-58
2023/01/26 04:59:17;;;;;;;47.78;14.85;;;2.70;99.90;;;;;;5099215;28;20080;-58
2023/01/26 05:01:43;;;;;;;53.42;14.63;;;2.00;99.90;;;;;;5098712;28;20156;-57
2023/01/26 05:04:11;;;;;;;48.20;13.65;;;2.60;99.90;;;;;;5099822;28;20048;-57
2023/01/26 05:06:37;;;;;;;41.47;13.90;;;2.70;99.90;;;;;;5099517;28;20120;-57
2023/01/26 05:09:04;;;;;;;41.95;13.32;;;2.40;99.90;;;;;;5099724;28;20047;-57
2023/01/26 05:11:30;;;;;;;51.35;14.40;;;1.80;99.90;;;;;;5099881;28;20036;-57
2023/01/26 05:13:55;;;;;;;40.85;14.60;;;2.70;99.90;;;;;;5099238;28;20044;-57
2023/01/26 05:16:21;;;;;;;42.55;13.45;;;1.80;99.90;;;;;;5099786;28;20040;-57
2023/01/26 05:18:47;;;;;;;43.70;14.15;;;2.80;99.90;;;;;;5098750;28;20087;-57
2023/01/26 05:21:13;;;;;;;41.40;14.15;;;2.80;99.90;;;;;;5099586;28;20044;-57
2023/01/26 05:23:39;;;;;;;37.58;13.27;;;1.80;99.90;;;;;;5100956;28;20044;-56
2023/01/26 05:26:05;;;;;;;46.95;14.95;;;1.80;99.90;;;;;;5085096;28;20047;-58
2023/01/26 05:28:32;;;;;;;47.03;12.95;;;2.90;99.90;;;;;;5103516;28;20032;-58
2023/01/26 05:30:58;;;;;;;45.03;13.55;;;2.50;99.90;;;;;;5103115;28;20543;-57
2023/01/26 05:33:23;;;;;;;45.97;13.40;;;1.90;99.90;;;;;;5103327;28;20055;-58
2023/01/26 05:35:50;;;;;;;41.78;12.77;;;2.60;99.90;;;;;;5102571;28;20492;-58
2023/01/26 05:38:16;;;;;;;39.38;12.02;;;1.90;99.90;;;;;;5103059;28;20051;-57
2023/01/26 05:40:42;;;;;;;43.20;12.00;;;3.00;99.90;;;;;;5103007;28;20430;-57
2023/01/26 05:43:08;;;;;;;41.17;11.32;;;2.00;99.90;;;;;;5103040;28;20063;-57
2023/01/26 05:45:34;;;;;;;39.47;12.35;;;2.10;99.90;;;;;;5103268;28;20048;-57
2023/01/26 05:47:59;;;;;;;33.35;12.50;;;2.60;99.90;;;;;;5102363;28;20472;-58
2023/01/26 05:50:25;;;;;;;33.35;11.70;;;2.10;99.90;;;;;;5103135;28;20086;-58
2023/01/26 05:52:51;;;;;;;37.25;12.25;;;3.00;99.90;;;;;;5084005;28;20099;-58
2023/01/26 05:55:17;;;;;;;38.22;12.02;;;3.20;99.90;;;;;;5083147;28;20041;-58
2023/01/26 05:57:43;;;;;;;36.40;12.52;;;2.10;99.90;;;;;;5082212;28;20069;-57
2023/01/26 06:00:10;;;;;;;34.53;12.55;;;2.10;99.90;;;;;;5082785;28;20052;-58
2023/01/26 06:02:35;;;;;;;31.73;11.02;;;2.00;99.90;;;;;;5082314;28;20115;-57
2023/01/26 06:05:01;;;;;;;35.58;11.25;;;3.10;99.90;;;;;;5082098;28;20048;-57
2023/01/26 06:07:27;;;;;;;38.03;12.85;;;3.10;99.90;;;;;;5082490;28;20044;-57
2023/01/26 06:09:52;;;;;;;35.05;10.80;;;3.10;99.90;;;;;;5081799;28;20143;-58
2023/01/26 06:12:20;;;;;;;35.67;10.50;;;2.30;99.90;;;;;;5082310;28;20092;-58
2023/01/26 06:14:46;;;;;;;28.55;11.00;;;2.20;99.90;;;;;;5063701;28;20071;-58
2023/01/26 06:17:13;;;;;;;30.15;9.85;;;2.10;99.90;;;;;;5081851;28;20043;-57
2023/01/26 06:19:38;;;;;;;30.75;10.02;;;2.00;99.90;;;;;;5082289;28;20033;-57
2023/01/26 06:22:08;;;;;;;32.95;7.95;;;2.10;99.90;;;;;;5081871;28;20036;-57
2023/01/26 06:24:34;;;;;;;42.38;9.65;;;2.30;99.90;;;;;;5082090;28;20036;-57
2023/01/26 06:27:00;;;;;;;34.42;7.18;;;2.70;99.90;;;;;;5081526;28;20048;-57
2023/01/26 06:29:26;;;;;;;38.25;6.07;;;3.20;99.90;;;;;;5081865;28;20614;-57
2023/01/26 06:31:52;;;;;;;28.45;6.32;;;2.40;99.90;;;;;;5081613;28;20072;-57
2023/01/26 06:34:18;;;;;;;30.30;5.10;;;3.50;99.90;;;;;;5078567;28;20063;-57
2023/01/26 06:36:44;;;;;;;33.83;4.82;;;3.60;99.90;;;;;;5078270;28;20048;-57
2023/01/26 06:39:11;;;;;;;31.63;4.65;;;2.50;99.90;;;;;;5078109;28;20057;-57
2023/01/26 06:41:37;;;;;;;29.08;4.05;;;2.60;99.90;;;;;;5078691;28;20048;-57
2023/01/26 06:44:03;;;;;;;25.60;3.72;;;3.40;99.90;;;;;;5077876;28;20051;-58
2023/01/26 06:46:29;;;;;;;28.95;3.80;;;4.10;99.90;;;;;;5077840;28;20036;-58
2023/01/26 06:48:54;;;;;;;41.78;5.75;;;2.60;99.90;;;;;;5077401;28;20055;-57
2023/01/26 06:51:20;;;;;;;31.58;4.75;;;2.80;99.90;;;;;;5083815;28;20051;-56
2023/01/26 06:53:54;;;;;;;29.85;3.95;;;3.30;99.90;;;;;;5087450;28;20052;-57
2023/01/26 06:56:20;;;;;;;33.42;3.67;;;2.60;99.90;;;;;;5089223;28;20044;-57
2023/01/26 06:58:46;;;;;;;28.45;3.40;;;4.00;99.90;;;;;;5095877;28;20091;-57
2023/01/26 07:01:20;;;;;;;37.40;4.32;;;3.60;99.90;;;;;;5097454;28;20040;-57
2023/01/26 07:03:53;;;;;;;30.08;6.40;;;2.70;99.90;;;;;;5097927;28;20051;-57
2023/01/26 07:06:19;;;;;;;31.55;4.38;;;2.50;99.90;;;;;;5097900;28;20040;-57
2023/01/26 07:08:45;;;;;;;36.92;5.70;;;3.90;99.90;;;;;;5098032;28;20047;-57
2023/01/26 07:11:11;;;;;;;23.48;3.92;;;3.50;99.90;;;;;;5097810;28;20048;-57
2023/01/26 07:13:38;;;;;;;27.30;3.92;;;2.50;99.90;;;;;;5097256;28;20052;-57
2023/01/26 07:16:06;;;;;;;24.88;3.30;;;3.90;99.90;;;;;;5079917;28;20058;-57
2023/01/26 07:18:32;;;;;;;36.50;4.75;;;2.70;99.90;;;;;;5096588;28;20832;-57
2023/01/26 07:21:05;;;;;;;22.52;3.88;;;2.50;99.90;;;;;;5097674;28;20064;-57
2023/01/26 07:23:31;;;;;;;24.67;4.18;;;4.00;99.90;;;;;;5097126;28;20051;-57
2023/01/26 07:25:58;;;;;;;27.60;4.03;;;4.10;99.90;;;;;;5097674;28;20048;-57
2023/01/26 07:28:24;;;;;;;31.30;4.85;;;4.20;99.90;;;;;;5098009;28;20052;-57
2023/01/26 07:30:51;;;;;;;33.85;4.53;;;2.90;99.90;;;;;;5097278;28;20052;-57
2023/01/26 07:33:17;;;;;;;24.88;3.35;;;4.00;99.90;;;;;;5097720;28;20079;-57
2023/01/26 07:35:43;;;;;;;19.52;2.88;;;4.40;99.90;;;;;;5096940;28;20559;-57
2023/01/26 07:38:09;;;;;;;31.65;5.40;;;3.00;99.90;;;;;;5097367;28;20044;-57
2023/01/26 07:40:34;;;;;;;27.70;3.88;;;4.30;99.90;;;;;;5078781;28;20127;-56
2023/01/26 07:43:00;;;;;;;30.30;3.60;;;3.90;99.90;;;;;;5097370;28;20036;-57
2023/01/26 07:45:26;;;;;;;29.08;4.32;;;4.50;99.90;;;;;;5097201;28;20070;-57
2023/01/26 07:47:55;;;;;;;21.10;3.25;;;3.10;99.90;;;;;;5096756;28;20044;-57
2023/01/26 07:50:21;;;;;;;27.42;3.53;;;3.10;99.90;;;;;;5097387;28;20067;-58
2023/01/26 07:52:47;;;;;;;26.45;3.08;;;3.10;99.90;;;;;;5096591;28;20345;-57
2023/01/26 07:55:14;;;;;;;28.95;2.67;;;4.20;99.90;;;;;;5059389;28;20048;-57
2023/01/26 07:57:40;;;;;;;28.23;3.65;;;3.10;99.90;;;;;;5076175;28;20045;-57
2023/01/26 08:00:06;;;;;;;29.42;4.07;;;3.80;99.90;;;;;;5076954;28;20029;-57
2023/01/26 08:02:32;;;;;;;35.90;4.10;;;3.10;99.90;;;;;;5059161;28;20127;-57
2023/01/26 08:04:59;;;;;;;22.80;3.05;;;3.20;99.90;;;;;;5042137;28;20129;-57
2023/01/26 08:07:25;;;;;;;36.97;3.88;;;3.40;99.90;;;;;;5076990;28;20056;-57
2023/01/26 08:09:50;;;;;;;33.47;4.25;;;3.70;99.90;;;;;;5075854;28;20040;-57
2023/01/26 08:12:16;;;;;;;31.50;4.05;;;4.50;99.90;;;;;;5058656;28;20049;-57
2023/01/26 08:14:42;;;;;;;28.48;3.50;;;3.60;99.90;;;;;;5076201;28;20097;-58
2023/01/26 08:17:07;;;;;;;25.60;2.50;;;4.50;99.90;;;;;;5080096;28;20079;-57
2023/01/26 08:19:33;;;;;;;25.88;3.15;;;3.70;99.90;;;;;;5087647;28;20036;-57
2023/01/26 08:21:58;;;;;;;30.23;5.90;;;3.60;99.90;;;;;;5068408;28;20037;-57
2023/01/26 08:24:25;;;;;;;47.30;14.07;;;3.40;99.90;;;;;;5081935;28;20044;-57
2023/01/26 08:26:51;;;;;;;29.08;6.00;;;4.30;99.90;;;;;;5076092;28;20047;-57
2023/01/26 08:29:17;;;;;;;37.42;5.47;;;4.70;99.90;;;;;;5059092;28;20049;-56
2023/01/26 08:31:42;;;;;;;33.65;4.28;;;3.60;99.90;;;;;;5090578;28;20104;-57
2023/01/26 08:34:08;;;;;;;31.33;3.55;;;3.60;99.90;;;;;;5077947;28;20047;-58
2023/01/26 08:36:34;;;;;;;29.50;4.63;;;5.00;99.90;;;;;;5087452;28;20044;-57
2023/01/26 08:39:01;;;;;;;27.73;4.80;;;4.50;99.90;;;;;;5090477;28;20052;-57
2023/01/26 08:41:27;;;;;;;27.23;4.50;;;4.70;99.90;;;;;;5096728;28;20048;-57
2023/01/26 08:43:52;;;;;;;26.17;3.15;;;4.50;99.90;;;;;;5096203;28;20086;-57
2023/01/26 08:46:18;;;;;;;29.38;4.60;;;3.90;99.90;;;;;;5096297;28;20063;-57
2023/01/26 08:48:44;;;;;;;18.98;3.80;;;3.90;99.90;;;;;;5095860;28;20044;-57
2023/01/26 08:51:12;;;;;;;26.73;3.70;;;3.90;99.90;;;;;;5096702;28;20044;-57
2023/01/26 08:53:38;;;;;;;21.98;3.55;;;4.40;99.90;;;;;;5089161;28;20090;-57
2023/01/26 08:56:06;;;;;;;34.05;4.10;;;4.90;99.90;;;;;;5075777;28;20047;-57
2023/01/26 08:58:32;;;;;;;27.15;3.22;;;4.30;99.90;;;;;;5077459;28;20520;-58
2023/01/26 09:01:02;;;;;;;28.17;3.10;;;4.00;99.90;;;;;;5079254;28;20080;-57
2023/01/26 09:03:27;;;;;;;25.42;3.75;;;5.20;99.90;;;;;;5079735;28;20048;-57
2023/01/26 09:05:59;;;;;;;23.33;3.40;;;5.20;99.90;;;;;;5079422;28;20049;-57
2023/01/26 09:08:24;;;;;;;23.90;3.57;;;4.30;99.90;;;;;;5061781;28;20049;-58
2023/01/26 09:10:50;;;;;;;28.70;3.70;;;5.20;99.90;;;;;;5079578;28;20033;-57
2023/01/26 09:13:16;;;;;;;35.85;5.13;;;5.30;99.90;;;;;;5061596;28;20691;-58
2023/01/26 09:15:41;;;;;;;20.95;2.83;;;4.00;99.90;;;;;;5080140;28;20645;-55
2023/01/26 09:18:08;;;;;;;23.67;3.75;;;5.30;99.90;;;;;;5060916;28;20090;-57
2023/01/26 09:20:33;;;;;;;32.83;6.20;;;4.40;99.90;;;;;;5078888;28;20045;-58
2023/01/26 09:22:59;;;;;;;30.42;3.38;;;4.30;99.90;;;;;;5060619;28;20071;-58
2023/01/26 09:25:25;;;;;;;23.38;4.05;;;4.30;99.90;;;;;;5078978;28;20097;-57
2023/01/26 09:27:50;;;;;;;22.60;4.25;;;5.40;99.90;;;;;;5079121;28;20056;-57
2023/01/26 09:30:16;;;;;;;24.42;3.63;;;4.40;99.90;;;;;;5078905;28;20051;-55
2023/01/26 09:32:42;;;;;;;28.15;3.60;;;4.80;99.90;;;;;;5079436;28;20052;-57
2023/01/26 09:35:10;;;;;;;23.50;2.90;;;5.70;99.90;;;;;;5078250;28;20123;-58
2023/01/26 09:37:37;;;;;;;25.23;3.80;;;5.70;99.90;;;;;;5079383;28;20542;-57
2023/01/26 09:40:04;;;;;;;24.08;3.50;;;4.90;99.90;;;;;;5078736;28;20056;-57
2023/01/26 09:42:49;;;;;;;21.48;2.90;;;5.00;99.90;;;;;;5079559;28;20041;-57
2023/01/26 09:45:27;;;;;;;19.73;2.50;;;5.00;99.90;;;;;;5081842;28;20123;-57
2023/01/26 09:48:19;;;;;;;18.30;3.20;;;6.20;99.90;;;;;;5087244;28;20043;-57
2023/01/26 09:50:52;;;;;;;27.90;3.95;;;5.60;99.90;;;;;;5089348;28;20073;-57
2023/01/26 09:53:31;;;;;;;33.63;3.70;;;6.40;99.90;;;;;;5088379;28;20044;-57
2023/01/26 09:55:57;;;;;;;25.90;3.78;;;6.10;99.90;;;;;;5089689;28;20520;-57
2023/01/26 09:58:38;;;;;;;30.02;3.33;;;5.40;99.90;;;;;;5088911;28;20040;-57
2023/01/26 10:01:13;;;;;;;28.02;2.92;;;6.10;99.90;;;;;;5087438;28;20651;-58
2023/01/26 10:03:47;;;;;;;23.50;2.67;;;5.90;99.90;;;;;;5090283;28;20045;-57
2023/01/26 10:06:27;;;;;;;21.77;3.13;;;6.50;99.90;;;;;;5087367;28;20037;-57
2023/01/26 10:08:56;;;;;;;27.13;3.30;;;6.60;99.90;;;;;;5087363;28;20045;-57
2023/01/26 10:11:36;;;;;;;29.65;4.68;;;6.50;99.90;;;;;;5087253;28;20058;-57
2023/01/26 10:14:18;;;;;;;22.58;2.90;;;6.30;99.90;;;;;;5070006;28;20057;-57
2023/01/26 10:16:48;;;;;;;30.35;3.78;;;6.70;99.90;;;;;;5089905;28;20071;-58
2023/01/26 10:19:30;;;;;;;20.08;2.65;;;5.70;99.90;;;;;;5053991;28;20104;-57
2023/01/26 10:22:02;;;;;;;25.60;4.47;;;6.70;99.90;;;;;;5055228;28;20076;-57
2023/01/26 10:24:28;;;;;;;24.42;2.92;;;5.80;99.90;;;;;;5040161;28;20052;-57
2023/01/26 10:26:57;;;;;;;25.90;3.17;;;6.70;99.90;;;;;;5056848;28;20055;-57
2023/01/26 10:29:22;;;;;;;20.58;2.80;;;6.60;99.90;;;;;;5056699;28;20053;-58
2023/01/26 10:31:48;;;;;;;24.42;2.60;;;6.40;99.90;;;;;;5057190;28;20076;-57
2023/01/26 10:34:24;;;;;;;27.20;2.78;;;5.80;99.90;;;;;;5056823;28;20065;-58
2023/01/26 10:36:57;;;;;;;19.08;2.90;;;5.70;99.90;;;;;;5052677;28;20155;-58
2023/01/26 10:39:23;;;;;;;25.63;2.75;;;6.80;99.90;;;;;;5046376;28;20085;-57
2023/01/26 10:42:00;;;;;;;33.83;5.15;;;6.60;99.90;;;;;;5045869;28;20079;-58
2023/01/26 10:44:34;;;;;;;21.73;2.67;;;6.60;99.90;;;;;;5036857;28;20061;-57
2023/01/26 10:47:14;;;;;;;16.70;2.60;;;7.00;99.90;;;;;;5036443;28;20103;-57
2023/01/26 10:49:39;;;;;;;23.85;3.30;;;6.10;99.90;;;;;;5037374;28;20057;-56
2023/01/26 10:52:17;;;;;;;15.48;2.38;;;7.00;99.90;;;;;;5036522;28;20064;-56
2023/01/26 10:54:45;;;;;;;22.20;3.30;;;6.20;99.90;;;;;;5051902;28;20205;-56
2023/01/26 10:57:15;;;;;;;17.98;2.58;;;6.30;99.90;;;;;;5056491;28;20045;-57
2023/01/26 10:59:52;;;;;;;21.05;2.72;;;6.90;99.90;;;;;;5056448;28;20963;-57
2023/01/26 11:02:27;;;;;;;18.33;2.83;;;6.20;99.90;;;;;;5057015;28;20051;-56
2023/01/26 11:05:01;;;;;;;13.98;2.75;;;6.20;99.90;;;;;;5056373;28;20497;-57
2023/01/26 11:07:34;;;;;;;19.98;2.50;;;6.50;99.90;;;;;;5056351;28;20060;-57
2023/01/26 11:10:35;;;;;;;21.75;2.50;;;6.50;99.90;;;;;;5056102;28;20049;-57
2023/01/26 11:13:16;;;;;;;18.98;1.90;;;7.20;99.90;;;;;;5043158;28;20060;-57
2023/01/26 11:16:04;;;;;;;17.98;2.22;;;7.20;99.90;;;;;;5059573;28;20045;-57
2023/01/26 11:18:52;;;;;;;21.05;3.10;;;7.00;99.90;;;;;;5066103;28;20066;-57
2023/01/26 11:21:48;;;;;;;15.15;2.22;;;6.80;99.90;;;;;;5099508;28;20416;-57
2023/01/26 11:24:31;;;;;;;17.40;3.03;;;7.10;99.90;;;;;;5099972;28;20047;-57
2023/01/26 11:27:30;;;;;;;16.27;2.60;;;7.00;99.90;;;;;;5099247;28;20146;-57
2023/01/26 11:30:14;;;;;;;21.52;2.88;;;7.10;99.90;;;;;;5076182;28;20110;-57
2023/01/26 11:32:49;;;;;;;21.73;3.40;;;6.90;99.90;;;;;;5087560;28;20043;-58
2023/01/26 11:35:29;;;;;;;15.38;2.08;;;7.50;99.90;;;;;;5088902;28;20035;-56
2023/01/26 11:38:13;;;;;;;20.58;2.65;;;7.20;99.90;;;;;;5071018;28;20522;-57
2023/01/26 11:40:39;;;;;;;18.40;2.38;;;7.70;99.90;;;;;;5089287;28;20626;-56
2023/01/26 11:43:28;;;;;;;21.13;2.55;;;7.50;99.90;;;;;;5088203;28;20032;-57
2023/01/26 11:46:01;;;;;;;14.68;2.03;;;7.60;99.90;;;;;;5088904;28;20051;-57
2023/01/26 11:48:44;;;;;;;;;;;7.30;99.90;;;;;;5088719;28;20036;-57
2023/01/26 11:51:18;;;;;;;19.83;2.13;;;7.50;99.90;;;;;;5089209;28;19920;-57
2023/01/26 11:53:47;;;;;;;15.90;2.28;;;7.40;99.90;;;;;;5070277;28;20080;-57
2023/01/26 11:56:35;;;;;;;13.38;2.17;;;7.20;99.90;;;;;;5088034;28;20050;-58
2023/01/26 11:59:35;;;;;;;14.95;1.92;;;7.20;99.90;;;;;;5088769;28;20048;-57
2023/01/26 12:02:12;;;;;;;14.90;2.67;;;7.50;99.90;;;;;;5089658;28;20041;-57
2023/01/26 12:04:44;;;;;;;16.52;2.42;;;7.20;99.90;;;;;;5060680;28;20045;-56
2023/01/26 12:07:26;;;;;;;17.08;2.28;;;7.20;99.90;;;;;;5078725;28;20041;-56
2023/01/26 12:09:52;;;;;;;13.02;1.75;;;7.20;99.90;;;;;;5078570;28;20520;-57
2023/01/26 12:12:36;;;;;;;13.23;1.83;;;7.10;99.90;;;;;;5078111;28;20052;-56
2023/01/26 12:15:32;;;;;;;20.08;2.45;;;7.40;99.90;;;;;;5077672;28;20052;-57
2023/01/26 12:18:32;;;;;;;13.70;1.75;;;7.60;99.90;;;;;;5077031;28;20076;-57
2023/01/26 12:21:04;;;;;;;18.80;2.58;;;7.20;99.90;;;;;;5078602;28;20049;-57
2023/01/26 12:23:43;;;;;;;13.65;1.77;;;7.20;99.90;;;;;;5078729;28;20041;-57
2023/01/26 12:26:22;;;;;;;14.55;2.75;;;7.30;99.90;;;;;;5060320;28;20048;-56
2023/01/26 12:29:00;;;;;;;12.65;2.58;;;7.70;99.90;;;;;;5060361;28;20052;-57
2023/01/26 12:31:33;;;;;;;15.55;2.10;;;7.60;99.90;;;;;;5078459;28;20048;-57
2023/01/26 12:33:58;;;;;;;12.98;1.75;;;7.30;99.90;;;;;;5077543;28;20033;-56
2023/01/26 12:36:43;;;;;;;10.90;1.55;;;7.30;99.90;;;;;;5078658;28;20074;-56
2023/01/26 12:39:57;;;;;;;11.05;1.70;;;7.30;99.90;;;;;;5078098;28;20045;-57
2023/01/26 12:42:26;;;;;;;9.75;1.50;;;7.50;99.90;;;;;;5043720;28;20063;-57
2023/01/26 12:45:00;;;;;;;10.70;1.92;;;7.50;99.90;;;;;;5078624;28;20435;-57
2023/01/26 12:47:45;;;;;;;11.57;2.20;;;7.60;99.90;;;;;;5078176;28;20105;-58
2023/01/26 12:50:30;;;;;;;9.70;1.70;;;7.50;99.90;;;;;;5060267;28;20052;-57
2023/01/26 12:53:08;;;;;;;13.85;1.90;;;7.30;99.90;;;;;;5078710;28;20070;-58
2023/01/26 12:55:46;;;;;;;14.43;2.67;;;7.30;99.90;;;;;;5098435;28;20067;-56
2023/01/26 12:58:26;;;;;;;15.65;1.90;;;7.70;99.90;;;;;;5098961;28;20083;-57
2023/01/26 13:01:02;;;;;;;10.90;2.00;;;7.50;99.90;;;;;;5098507;28;20036;-57
2023/01/26 13:03:32;;;;;;;13.00;2.15;;;7.40;99.90;;;;;;5098239;28;20048;-56
2023/01/26 13:06:18;;;;;;;14.88;2.05;;;7.50;99.90;;;;;;5098659;28;20685;-57
2023/01/26 13:09:04;;;;;;;10.02;1.85;;;7.30;99.90;;;;;;5098336;28;20044;-56
2023/01/26 13:11:55;;;;;;;10.77;1.98;;;7.40;99.90;;;;;;5098685;28;20040;-56
2023/01/26 13:14:34;;;;;;;7.07;1.10;;;7.30;99.90;;;;;;5079862;28;20048;-57
2023/01/26 13:17:22;;;;;;;13.63;1.83;;;7.40;99.90;;;;;;5098160;28;20064;-57
2023/01/26 13:19:47;;;;;;;9.10;1.63;;;7.40;99.90;;;;;;5098461;28;20074;-57
2023/01/26 13:22:37;;;;;;;20.52;2.13;;;7.30;99.90;;;;;;5098337;28;20504;-57
2023/01/26 13:25:17;;;;;;;14.82;1.83;;;7.20;99.90;;;;;;5065545;28;20056;-57
2023/01/26 13:27:57;;;;;;;7.28;1.80;;;7.30;99.90;;;;;;5080537;28;20055;-57
2023/01/26 13:30:23;;;;;;;13.55;2.22;;;7.30;99.90;;;;;;5098236;28;20040;-57
2023/01/26 13:32:51;;;;;;;14.52;2.20;;;7.20;99.90;;;;;;5080203;28;20048;-57
2023/01/26 13:35:22;;;;;;;13.80;1.88;;;7.10;99.90;;;;;;5098059;28;20036;-57
2023/01/26 13:38:26;;;;;;;12.67;2.03;;;7.10;99.90;;;;;;5098057;28;20076;-57
2023/01/26 13:40:52;;;;;;;13.40;1.77;;;7.20;99.90;;;;;;5098504;28;20051;-56
2023/01/26 13:43:52;;;;;;;14.13;1.63;;;7.10;99.90;;;;;;5097617;28;20495;-56
2023/01/26 13:46:33;;;;;;;10.45;1.65;;;7.00;99.90;;;;;;5079666;28;20060;-57